createdAt,value
2022-11-28T00:00:46.901Z,1016.76
2022-11-28T00:01:46.920Z,1016.79
2022-11-28T00:02:46.929Z,1016.76
2022-11-28T00:03:46.792Z,1016.77
2022-11-28T00:04:46.877Z,1016.75
2022-11-28T00:05:47.134Z,1016.74
2022-11-28T00:06:46.687Z,1016.69
2022-11-28T00:07:46.714Z,1016.71
2022-11-28T00:08:46.606Z,1016.70
2022-11-28T00:09:46.627Z,1016.73
2022-11-28T00:10:46.550Z,1016.64
2022-11-28T00:11:46.494Z,1016.69
2022-11-28T00:12:46.481Z,1016.64
2022-11-28T00:13:46.429Z,1016.64
2022-11-28T00:14:46.383Z,1016.62
2022-11-28T00:15:46.462Z,1016.62
2022-11-28T00:16:46.317Z,1016.62
2022-11-28T00:17:46.286Z,1016.65
2022-11-28T00:18:46.254Z,1016.62
2022-11-28T00:19:46.206Z,1016.61
2022-11-28T00:20:46.235Z,1016.61
2022-11-28T00:21:46.175Z,1016.63
2022-11-28T00:22:46.088Z,1016.58
2022-11-28T00:23:46.068Z,1016.62
2022-11-28T00:24:46.031Z,1016.57
2022-11-28T00:25:45.983Z,1016.54
2022-11-28T00:26:45.962Z,1016.54
2022-11-28T00:27:45.962Z,1016.53
2022-11-28T00:28:45.880Z,1016.53
2022-11-28T00:29:45.840Z,1016.53
2022-11-28T00:30:45.818Z,1016.49
2022-11-28T00:31:45.862Z,1016.57
2022-11-28T00:32:45.730Z,1016.49
2022-11-28T00:33:45.756Z,1016.49
2022-11-28T00:34:45.673Z,1016.50
2022-11-28T00:35:45.637Z,1016.48
2022-11-28T00:36:45.654Z,1016.47
2022-11-28T00:37:45.550Z,1016.48
2022-11-28T00:38:45.522Z,1016.46
2022-11-28T00:39:45.541Z,1016.48
2022-11-28T00:40:45.436Z,1016.46
2022-11-28T00:41:45.401Z,1016.44
2022-11-28T00:42:45.383Z,1016.41
2022-11-28T00:43:45.324Z,1016.41
2022-11-28T00:44:45.296Z,1016.46
2022-11-28T00:45:45.354Z,1016.42
2022-11-28T00:46:45.210Z,1016.46
2022-11-28T00:47:45.187Z,1016.41
2022-11-28T00:48:45.149Z,1016.43
2022-11-28T00:49:45.118Z,1016.42
2022-11-28T00:50:45.091Z,1016.46
2022-11-28T00:51:45.088Z,1016.46
2022-11-28T00:52:45.069Z,1016.44
2022-11-28T00:53:44.959Z,1016.41
2022-11-28T00:54:44.931Z,1016.42
2022-11-28T00:55:44.884Z,1016.42
2022-11-28T00:56:44.857Z,1016.34
2022-11-28T00:57:44.880Z,1016.43
2022-11-28T00:58:44.792Z,1016.38
2022-11-28T00:59:44.762Z,1016.35
2022-11-28T01:00:44.737Z,1016.31
2022-11-28T01:01:44.787Z,1016.32
2022-11-28T01:02:44.733Z,1016.27
2022-11-28T01:03:44.648Z,1016.30
2022-11-28T01:04:44.665Z,1016.26
2022-11-28T01:05:44.538Z,1016.30
2022-11-28T01:06:44.490Z,1016.30
2022-11-28T01:07:44.540Z,1016.29
2022-11-28T01:08:44.493Z,1016.26
2022-11-28T01:09:44.428Z,1016.31
2022-11-28T01:10:44.338Z,1016.29
2022-11-28T01:11:44.439Z,1016.35
2022-11-28T01:12:44.265Z,1016.27
2022-11-28T01:13:44.236Z,1016.31
2022-11-28T01:14:44.487Z,1016.25
2022-11-28T01:15:44.169Z,1016.24
2022-11-28T01:16:44.204Z,1016.26
2022-11-28T01:17:44.103Z,1016.20
2022-11-28T01:18:44.053Z,1016.23
2022-11-28T01:19:44.024Z,1016.19
2022-11-28T01:20:44.100Z,1016.19
2022-11-28T01:21:43.944Z,1016.16
2022-11-28T01:22:43.977Z,1016.15
2022-11-28T01:23:43.868Z,1016.16
2022-11-28T01:24:44.059Z,1016.19
2022-11-28T01:25:43.805Z,1016.20
2022-11-28T01:26:43.755Z,1016.18
2022-11-28T01:27:43.717Z,1016.21
2022-11-28T01:28:43.754Z,1016.14
2022-11-28T01:29:43.695Z,1016.14
2022-11-28T01:30:43.636Z,1016.16
2022-11-28T01:31:43.629Z,1016.13
2022-11-28T01:32:43.539Z,1016.12
2022-11-28T01:33:43.563Z,1016.09
2022-11-28T01:34:43.757Z,1016.10
2022-11-28T01:35:43.446Z,1016.12
2022-11-28T01:36:43.399Z,1016.13
2022-11-28T01:37:43.361Z,1016.12
2022-11-28T01:38:43.392Z,1016.14
2022-11-28T01:39:43.282Z,1016.11
2022-11-28T01:40:43.323Z,1016.05
2022-11-28T01:41:43.218Z,1016.07
2022-11-28T01:42:43.169Z,1016.03
2022-11-28T01:43:43.147Z,1016.02
2022-11-28T01:44:43.407Z,1016.04
2022-11-28T01:45:43.067Z,1015.97
2022-11-28T01:46:43.051Z,1015.98
2022-11-28T01:47:42.988Z,1016.00
2022-11-28T01:48:42.953Z,1015.95
2022-11-28T01:49:42.917Z,1015.88
2022-11-28T01:50:42.931Z,1015.88
2022-11-28T01:51:42.853Z,1015.85
2022-11-28T01:52:42.815Z,1015.85
2022-11-28T01:53:42.770Z,1015.83
2022-11-28T01:54:43.072Z,1015.83
2022-11-28T01:55:42.697Z,1015.81
2022-11-28T01:56:42.783Z,1015.78
2022-11-28T01:57:42.613Z,1015.80
2022-11-28T01:58:42.591Z,1015.77
2022-11-28T01:59:42.614Z,1015.66
2022-11-28T02:00:42.558Z,1015.72
2022-11-28T02:01:42.517Z,1015.74
2022-11-28T02:02:42.442Z,1015.70
2022-11-28T02:03:42.403Z,1015.71
2022-11-28T02:04:42.612Z,1015.69
2022-11-28T02:05:42.334Z,1015.66
2022-11-28T02:06:42.308Z,1015.65
2022-11-28T02:07:42.274Z,1015.65
2022-11-28T02:08:42.232Z,1015.65
2022-11-28T02:09:42.187Z,1015.62
2022-11-28T02:10:42.212Z,1015.63
2022-11-28T02:11:42.119Z,1015.62
2022-11-28T02:12:42.141Z,1015.61
2022-11-28T02:13:42.038Z,1015.61
2022-11-28T02:14:42.189Z,1015.65
2022-11-28T02:15:41.969Z,1015.56
2022-11-28T02:16:42.035Z,1015.53
2022-11-28T02:17:41.897Z,1015.62
2022-11-28T02:18:44.993Z,1015.56
2022-11-28T02:19:41.829Z,1015.52
2022-11-28T02:20:41.833Z,1015.53
2022-11-28T02:21:41.739Z,1015.48
2022-11-28T02:22:41.724Z,1015.54
2022-11-28T02:23:41.668Z,1015.53
2022-11-28T02:24:41.783Z,1015.49
2022-11-28T02:25:41.670Z,1015.50
2022-11-28T02:26:41.577Z,1015.51
2022-11-28T02:27:41.529Z,1015.48
2022-11-28T02:28:41.552Z,1015.49
2022-11-28T02:29:41.451Z,1015.46
2022-11-28T02:30:41.414Z,1015.45
2022-11-28T02:31:41.602Z,1015.45
2022-11-28T02:32:41.339Z,1015.43
2022-11-28T02:33:41.311Z,1015.39
2022-11-28T02:34:45.655Z,1015.38
2022-11-28T02:35:41.220Z,1015.39
2022-11-28T02:36:41.187Z,1015.38
2022-11-28T02:37:41.220Z,1015.31
2022-11-28T02:38:41.115Z,1015.38
2022-11-28T02:39:41.093Z,1015.33
2022-11-28T02:40:41.052Z,1015.33
2022-11-28T02:41:41.005Z,1015.32
2022-11-28T02:42:40.972Z,1015.28
2022-11-28T02:43:40.982Z,1015.28
2022-11-28T02:44:41.318Z,1015.32
2022-11-28T02:45:40.863Z,1015.31
2022-11-28T02:46:40.885Z,1015.34
2022-11-28T02:47:40.795Z,1015.33
2022-11-28T02:48:40.752Z,1015.32
2022-11-28T02:49:40.777Z,1015.34
2022-11-28T02:50:40.692Z,1015.33
2022-11-28T02:51:40.653Z,1015.35
2022-11-28T02:52:40.673Z,1015.34
2022-11-28T02:53:40.573Z,1015.36
2022-11-28T02:54:40.877Z,1015.26
2022-11-28T02:55:40.490Z,1015.19
2022-11-28T02:56:40.456Z,1015.26
2022-11-28T02:57:40.509Z,1015.25
2022-11-28T02:58:40.397Z,1015.26
2022-11-28T02:59:40.344Z,1015.28
2022-11-28T03:00:40.453Z,1015.25
2022-11-28T03:01:40.290Z,1015.26
2022-11-28T03:02:40.236Z,1015.23
2022-11-28T03:03:40.283Z,1015.27
2022-11-28T03:04:40.423Z,1015.26
2022-11-28T03:05:40.131Z,1015.19
2022-11-28T03:06:40.091Z,1015.24
2022-11-28T03:07:40.128Z,1015.13
2022-11-28T03:08:40.085Z,1015.19
2022-11-28T03:09:39.994Z,1015.16
2022-11-28T03:10:39.944Z,1015.08
2022-11-28T03:11:39.901Z,1015.09
2022-11-28T03:12:39.871Z,1015.12
2022-11-28T03:13:39.841Z,1015.12
2022-11-28T03:14:40.020Z,1015.07
2022-11-28T03:15:39.754Z,1015.07
2022-11-28T03:16:39.852Z,1015.05
2022-11-28T03:17:39.674Z,1015.03
2022-11-28T03:18:39.654Z,1015.02
2022-11-28T03:19:39.661Z,1014.99
2022-11-28T03:20:39.569Z,1015.00
2022-11-28T03:21:39.542Z,1014.99
2022-11-28T03:22:39.491Z,1015.00
2022-11-28T03:23:39.468Z,1014.98
2022-11-28T03:24:39.485Z,1014.99
2022-11-28T03:25:39.447Z,1014.96
2022-11-28T03:26:39.366Z,1015.00
2022-11-28T03:27:39.314Z,1015.00
2022-11-28T03:28:43.342Z,1014.98
2022-11-28T03:29:39.245Z,1015.00
2022-11-28T03:30:39.189Z,1015.03
2022-11-28T03:31:39.272Z,1015.02
2022-11-28T03:32:39.193Z,1015.05
2022-11-28T03:33:39.086Z,1015.05
2022-11-28T03:34:39.167Z,1014.98
2022-11-28T03:35:39.027Z,1014.98
2022-11-28T03:36:38.979Z,1014.97
2022-11-28T03:37:39.008Z,1014.98
2022-11-28T03:38:38.895Z,1014.96
2022-11-28T03:39:38.869Z,1014.97
2022-11-28T03:40:38.836Z,1014.94
2022-11-28T03:41:38.797Z,1015.00
2022-11-28T03:42:38.752Z,1014.91
2022-11-28T03:43:38.778Z,1014.94
2022-11-28T03:44:38.676Z,1014.88
2022-11-28T03:45:38.640Z,1014.87
2022-11-28T03:46:38.658Z,1014.89
2022-11-28T03:47:38.577Z,1014.91
2022-11-28T03:48:38.598Z,1014.89
2022-11-28T03:49:38.553Z,1014.87
2022-11-28T03:50:38.466Z,1014.86
2022-11-28T03:51:38.428Z,1014.86
2022-11-28T03:52:38.390Z,1014.82
2022-11-28T03:53:38.356Z,1014.84
2022-11-28T03:54:38.382Z,1014.82
2022-11-28T03:55:38.308Z,1014.78
2022-11-28T03:56:38.244Z,1014.79
2022-11-28T03:57:38.200Z,1014.80
2022-11-28T03:58:38.170Z,1014.77
2022-11-28T03:59:38.197Z,1014.77
2022-11-28T04:00:38.114Z,1014.75
2022-11-28T04:01:38.106Z,1014.79
2022-11-28T04:02:38.074Z,1014.79
2022-11-28T04:03:37.970Z,1014.75
2022-11-28T04:04:38.007Z,1014.74
2022-11-28T04:05:37.963Z,1014.77
2022-11-28T04:06:37.876Z,1014.74
2022-11-28T04:07:37.878Z,1014.70
2022-11-28T04:08:37.796Z,1014.68
2022-11-28T04:09:37.757Z,1014.71
2022-11-28T04:10:37.735Z,1014.74
2022-11-28T04:11:37.748Z,1014.74
2022-11-28T04:12:37.656Z,1014.72
2022-11-28T04:13:37.618Z,1014.72
2022-11-28T04:14:37.572Z,1014.71
2022-11-28T04:15:37.526Z,1014.69
2022-11-28T04:16:37.545Z,1014.66
2022-11-28T04:17:37.517Z,1014.63
2022-11-28T04:18:37.430Z,1014.60
2022-11-28T04:19:37.388Z,1014.62
2022-11-28T04:20:37.404Z,1014.54
2022-11-28T04:21:37.308Z,1014.55
2022-11-28T04:22:37.283Z,1014.56
2022-11-28T04:23:37.300Z,1014.55
2022-11-28T04:24:37.203Z,1014.51
2022-11-28T04:25:37.166Z,1014.55
2022-11-28T04:26:37.127Z,1014.52
2022-11-28T04:27:37.079Z,1014.48
2022-11-28T04:28:37.043Z,1014.51
2022-11-28T04:29:37.074Z,1014.51
2022-11-28T04:30:36.999Z,1014.48
2022-11-28T04:31:36.998Z,1014.46
2022-11-28T04:32:36.892Z,1014.50
2022-11-28T04:33:36.880Z,1014.42
2022-11-28T04:34:36.821Z,1014.48
2022-11-28T04:35:36.864Z,1014.45
2022-11-28T04:36:36.831Z,1014.45
2022-11-28T04:37:36.725Z,1014.47
2022-11-28T04:38:36.687Z,1014.42
2022-11-28T04:39:36.646Z,1014.43
2022-11-28T04:40:36.609Z,1014.43
2022-11-28T04:41:36.622Z,1014.45
2022-11-28T04:42:36.545Z,1014.44
2022-11-28T04:43:36.485Z,1014.46
2022-11-28T04:44:36.460Z,1014.42
2022-11-28T04:45:36.500Z,1014.43
2022-11-28T04:46:36.374Z,1014.38
2022-11-28T04:47:36.409Z,1014.39
2022-11-28T04:48:36.301Z,1014.35
2022-11-28T04:49:36.268Z,1014.40
2022-11-28T04:50:36.235Z,1014.35
2022-11-28T04:51:36.198Z,1014.38
2022-11-28T04:52:36.213Z,1014.36
2022-11-28T04:53:36.417Z,1014.41
2022-11-28T04:54:36.099Z,1014.38
2022-11-28T04:55:36.047Z,1014.37
2022-11-28T04:56:36.020Z,1014.42
2022-11-28T04:57:35.975Z,1014.37
2022-11-28T04:58:35.954Z,1014.36
2022-11-28T04:59:35.999Z,1014.37
2022-11-28T05:00:35.921Z,1014.41
2022-11-28T05:01:35.823Z,1014.37
2022-11-28T05:02:35.876Z,1014.41
2022-11-28T05:03:39.872Z,1014.34
2022-11-28T05:04:35.713Z,1014.35
2022-11-28T05:05:35.752Z,1014.33
2022-11-28T05:06:35.645Z,1014.35
2022-11-28T05:07:35.657Z,1014.37
2022-11-28T05:08:35.631Z,1014.32
2022-11-28T05:09:35.528Z,1014.37
2022-11-28T05:10:35.486Z,1014.35
2022-11-28T05:11:35.502Z,1014.38
2022-11-28T05:12:35.414Z,1014.39
2022-11-28T05:13:35.377Z,1014.40
2022-11-28T05:14:35.345Z,1014.39
2022-11-28T05:15:35.297Z,1014.42
2022-11-28T05:16:35.397Z,1014.45
2022-11-28T05:17:40.441Z,1014.41
2022-11-28T05:18:35.216Z,1014.42
2022-11-28T05:19:35.161Z,1014.42
2022-11-28T05:20:35.122Z,1014.45
2022-11-28T05:21:35.089Z,1014.41
2022-11-28T05:22:35.139Z,1014.43
2022-11-28T05:23:35.024Z,1014.41
2022-11-28T05:24:35.045Z,1014.38
2022-11-28T05:25:34.940Z,1014.41
2022-11-28T05:26:34.900Z,1014.41
2022-11-28T05:27:34.874Z,1014.38
2022-11-28T05:28:34.890Z,1014.39
2022-11-28T05:29:34.800Z,1014.32
2022-11-28T05:30:34.754Z,1014.33
2022-11-28T05:31:34.818Z,1014.26
2022-11-28T05:32:34.681Z,1014.29
2022-11-28T05:33:34.639Z,1014.24
2022-11-28T05:34:34.667Z,1014.26
2022-11-28T05:35:34.580Z,1014.22
2022-11-28T05:36:34.534Z,1014.18
2022-11-28T05:37:34.501Z,1014.23
2022-11-28T05:38:34.462Z,1014.20
2022-11-28T05:39:34.433Z,1014.23
2022-11-28T05:40:34.518Z,1014.15
2022-11-28T05:41:34.352Z,1014.17
2022-11-28T05:42:34.316Z,1014.16
2022-11-28T05:43:34.287Z,1014.11
2022-11-28T05:44:34.234Z,1014.12
2022-11-28T05:45:34.242Z,1014.13
2022-11-28T05:46:34.246Z,1014.07
2022-11-28T05:47:34.138Z,1014.09
2022-11-28T05:48:34.137Z,1014.06
2022-11-28T05:49:34.069Z,1014.01
2022-11-28T05:50:39.689Z,1014.07
2022-11-28T05:51:34.033Z,1014.01
2022-11-28T05:52:34.023Z,1014.05
2022-11-28T05:53:33.920Z,1014.02
2022-11-28T05:54:33.882Z,1013.97
2022-11-28T05:55:33.842Z,1013.96
2022-11-28T05:56:36.980Z,1014.02
2022-11-28T05:57:33.827Z,1013.90
2022-11-28T05:58:33.790Z,1013.91
2022-11-28T05:59:33.702Z,1013.96
2022-11-28T06:00:33.642Z,1013.97
2022-11-28T06:01:33.617Z,1013.91
2022-11-28T06:02:33.605Z,1013.91
2022-11-28T06:03:33.544Z,1013.88
2022-11-28T06:04:33.719Z,1013.90
2022-11-28T06:05:42.574Z,1013.84
2022-11-28T06:06:33.436Z,1013.84
2022-11-28T06:07:33.433Z,1013.81
2022-11-28T06:08:33.356Z,1013.82
2022-11-28T06:09:33.346Z,1013.80
2022-11-28T06:10:33.360Z,1013.71
2022-11-28T06:11:33.250Z,1013.78
2022-11-28T06:12:33.276Z,1013.76
2022-11-28T06:13:33.179Z,1013.76
2022-11-28T06:14:33.147Z,1013.80
2022-11-28T06:15:37.594Z,1013.79
2022-11-28T06:16:33.164Z,1013.76
2022-11-28T06:17:33.020Z,1013.72
2022-11-28T06:18:32.987Z,1013.75
2022-11-28T06:19:35.121Z,1013.71
2022-11-28T06:20:32.917Z,1013.72
2022-11-28T06:21:32.882Z,1013.71
2022-11-28T06:22:32.899Z,1013.72
2022-11-28T06:23:32.804Z,1013.70
2022-11-28T06:24:32.773Z,1013.76
2022-11-28T06:25:32.736Z,1013.66
2022-11-28T06:26:32.689Z,1013.68
2022-11-28T06:27:32.654Z,1013.71
2022-11-28T06:28:32.740Z,1013.71
2022-11-28T06:29:32.584Z,1013.71
2022-11-28T06:30:32.546Z,1013.76
2022-11-28T06:31:32.571Z,1013.67
2022-11-28T06:32:32.503Z,1013.71
2022-11-28T06:33:32.435Z,1013.74
2022-11-28T06:34:32.455Z,1013.70
2022-11-28T06:35:32.367Z,1013.70
2022-11-28T06:36:32.334Z,1013.69
2022-11-28T06:37:32.286Z,1013.66
2022-11-28T06:38:32.255Z,1013.72
2022-11-28T06:39:32.214Z,1013.72
2022-11-28T06:40:32.236Z,1013.67
2022-11-28T06:41:32.134Z,1013.72
2022-11-28T06:42:32.125Z,1013.66
2022-11-28T06:43:32.068Z,1013.65
2022-11-28T06:44:32.097Z,1013.67
2022-11-28T06:45:31.992Z,1013.66
2022-11-28T06:46:32.076Z,1013.66
2022-11-28T06:47:31.910Z,1013.71
2022-11-28T06:48:32.380Z,1013.67
2022-11-28T06:49:31.844Z,1013.70
2022-11-28T06:50:31.808Z,1013.70
2022-11-28T06:51:31.782Z,1013.65
2022-11-28T06:52:31.781Z,1013.72
2022-11-28T06:53:31.866Z,1013.68
2022-11-28T06:54:31.662Z,1013.64
2022-11-28T06:55:31.623Z,1013.62
2022-11-28T06:56:31.582Z,1013.66
2022-11-28T06:57:31.550Z,1013.62
2022-11-28T06:58:31.564Z,1013.66
2022-11-28T06:59:31.470Z,1013.59
2022-11-28T07:00:31.503Z,1013.67
2022-11-28T07:01:31.479Z,1013.69
2022-11-28T07:02:31.438Z,1013.72
2022-11-28T07:03:31.333Z,1013.70
2022-11-28T07:04:31.342Z,1013.72
2022-11-28T07:05:31.250Z,1013.66
2022-11-28T07:06:31.209Z,1013.65
2022-11-28T07:07:31.197Z,1013.64
2022-11-28T07:08:31.136Z,1013.71
2022-11-28T07:09:31.104Z,1013.63
2022-11-28T07:10:31.113Z,1013.62
2022-11-28T07:11:31.118Z,1013.64
2022-11-28T07:12:30.989Z,1013.59
2022-11-28T07:13:31.050Z,1013.57
2022-11-28T07:14:30.978Z,1013.62
2022-11-28T07:15:30.886Z,1013.62
2022-11-28T07:16:30.953Z,1013.57
2022-11-28T07:17:30.875Z,1013.56
2022-11-28T07:18:30.776Z,1013.56
2022-11-28T07:19:30.729Z,1013.56
2022-11-28T07:20:30.699Z,1013.55
2022-11-28T07:21:30.679Z,1013.56
2022-11-28T07:22:30.629Z,1013.59
2022-11-28T07:23:30.636Z,1013.55
2022-11-28T07:24:30.545Z,1013.56
2022-11-28T07:25:30.524Z,1013.59
2022-11-28T07:26:30.471Z,1013.59
2022-11-28T07:27:30.436Z,1013.62
2022-11-28T07:28:30.393Z,1013.57
2022-11-28T07:29:30.419Z,1013.61
2022-11-28T07:30:30.330Z,1013.59
2022-11-28T07:31:30.376Z,1013.59
2022-11-28T07:32:30.316Z,1013.61
2022-11-28T07:33:30.226Z,1013.56
2022-11-28T07:34:30.181Z,1013.52
2022-11-28T07:35:30.185Z,1013.56
2022-11-28T07:36:30.106Z,1013.57
2022-11-28T07:37:30.068Z,1013.60
2022-11-28T07:38:30.035Z,1013.56
2022-11-28T07:39:29.995Z,1013.57
2022-11-28T07:40:29.959Z,1013.56
2022-11-28T07:41:30.149Z,1013.43
2022-11-28T07:42:29.881Z,1013.54
2022-11-28T07:43:29.858Z,1013.43
2022-11-28T07:44:29.819Z,1013.49
2022-11-28T07:45:47.439Z,1013.51
2022-11-28T07:46:29.847Z,1013.46
2022-11-28T07:47:29.782Z,1013.48
2022-11-28T07:48:29.668Z,1013.43
2022-11-28T07:49:29.731Z,1013.47
2022-11-28T07:50:29.595Z,1013.44
2022-11-28T07:51:29.554Z,1013.43
2022-11-28T07:52:29.524Z,1013.43
2022-11-28T07:53:29.489Z,1013.40
2022-11-28T07:54:29.508Z,1013.40
2022-11-28T07:55:29.412Z,1013.34
2022-11-28T07:56:39.414Z,1013.35
2022-11-28T07:57:29.328Z,1013.41
2022-11-28T07:58:29.310Z,1013.40
2022-11-28T07:59:29.268Z,1013.37
2022-11-28T08:00:29.284Z,1013.36
2022-11-28T08:01:29.221Z,1013.36
2022-11-28T08:02:29.211Z,1013.32
2022-11-28T08:03:29.110Z,1013.36
2022-11-28T08:04:29.157Z,1013.38
2022-11-28T08:05:29.107Z,1013.41
2022-11-28T08:06:29.008Z,1013.40
2022-11-28T08:07:29.015Z,1013.41
2022-11-28T08:08:28.998Z,1013.47
2022-11-28T08:09:29.397Z,1013.46
2022-11-28T08:10:28.919Z,1013.51
2022-11-28T08:11:28.825Z,1013.40
2022-11-28T08:12:28.781Z,1013.46
2022-11-28T08:13:28.753Z,1013.47
2022-11-28T08:14:28.723Z,1013.44
2022-11-28T08:15:28.746Z,1013.49
2022-11-28T08:16:28.896Z,1013.52
2022-11-28T08:17:28.606Z,1013.44
2022-11-28T08:18:28.586Z,1013.45
2022-11-28T08:19:33.670Z,1013.44
2022-11-28T08:20:28.560Z,1013.50
2022-11-28T08:21:28.459Z,1013.39
2022-11-28T08:22:28.420Z,1013.44
2022-11-28T08:23:28.378Z,1013.42
2022-11-28T08:24:28.359Z,1013.45
2022-11-28T08:25:28.310Z,1013.40
2022-11-28T08:26:30.560Z,1013.38
2022-11-28T08:27:28.268Z,1013.38
2022-11-28T08:28:28.291Z,1013.36
2022-11-28T08:29:28.159Z,1013.40
2022-11-28T08:30:28.188Z,1013.40
2022-11-28T08:31:28.141Z,1013.41
2022-11-28T08:32:28.119Z,1013.41
2022-11-28T08:33:28.023Z,1013.41
2022-11-28T08:34:27.980Z,1013.49
2022-11-28T08:35:28.036Z,1013.50
2022-11-28T08:36:29.305Z,1013.52
2022-11-28T08:37:27.885Z,1013.46
2022-11-28T08:38:27.913Z,1013.45
2022-11-28T08:39:27.871Z,1013.55
2022-11-28T08:40:27.764Z,1013.53
2022-11-28T08:41:27.725Z,1013.46
2022-11-28T08:42:27.715Z,1013.54
2022-11-28T08:43:27.665Z,1013.54
2022-11-28T08:44:30.343Z,1013.58
2022-11-28T08:45:27.586Z,1013.63
2022-11-28T08:46:27.630Z,1013.63
2022-11-28T08:47:27.512Z,1013.63
2022-11-28T08:48:27.532Z,1013.64
2022-11-28T08:49:27.441Z,1013.66
2022-11-28T08:50:27.470Z,1013.65
2022-11-28T08:51:27.370Z,1013.66
2022-11-28T08:52:27.339Z,1013.64
2022-11-28T08:53:27.293Z,1013.68
2022-11-28T08:54:27.316Z,1013.67
2022-11-28T08:55:32.096Z,1013.66
2022-11-28T08:56:27.399Z,1013.68
2022-11-28T08:57:27.161Z,1013.68
2022-11-28T08:58:27.123Z,1013.71
2022-11-28T08:59:27.087Z,1013.68
2022-11-28T09:00:27.052Z,1013.64
2022-11-28T09:01:27.106Z,1013.62
2022-11-28T09:02:27.033Z,1013.61
2022-11-28T09:03:27.058Z,1013.64
2022-11-28T09:04:26.914Z,1013.57
2022-11-28T09:05:26.871Z,1013.63
2022-11-28T09:06:26.835Z,1013.64
2022-11-28T09:07:26.859Z,1013.54
2022-11-28T09:08:26.809Z,1013.59
2022-11-28T09:09:31.466Z,1013.56
2022-11-28T09:10:26.685Z,1013.54
2022-11-28T09:11:26.649Z,1013.57
2022-11-28T09:12:26.614Z,1013.52
2022-11-28T09:13:26.586Z,1013.48
2022-11-28T09:14:26.625Z,1013.51
2022-11-28T09:15:26.522Z,1013.50
2022-11-28T09:16:26.504Z,1013.52
2022-11-28T09:17:26.434Z,1013.51
2022-11-28T09:18:26.398Z,1013.50
2022-11-28T09:19:26.369Z,1013.54
2022-11-28T09:20:26.374Z,1013.55
2022-11-28T09:21:26.291Z,1013.58
2022-11-28T09:22:26.250Z,1013.61
2022-11-28T09:23:26.237Z,1013.63
2022-11-28T09:24:26.195Z,1013.69
2022-11-28T09:25:26.161Z,1013.66
2022-11-28T09:26:26.196Z,1013.72
2022-11-28T09:27:26.077Z,1013.73
2022-11-28T09:28:26.042Z,1013.74
2022-11-28T09:29:26.013Z,1013.71
2022-11-28T09:30:25.982Z,1013.74
2022-11-28T09:31:26.099Z,1013.68
2022-11-28T09:32:25.986Z,1013.70
2022-11-28T09:33:25.861Z,1013.72
2022-11-28T09:34:25.841Z,1013.69
2022-11-28T09:35:25.790Z,1013.61
2022-11-28T09:36:25.762Z,1013.71
2022-11-28T09:37:25.719Z,1013.69
2022-11-28T09:38:25.785Z,1013.71
2022-11-28T09:39:25.651Z,1013.66
2022-11-28T09:40:25.627Z,1013.63
2022-11-28T09:41:25.654Z,1013.62
2022-11-28T09:42:25.554Z,1013.62
2022-11-28T09:43:25.518Z,1013.63
2022-11-28T09:44:25.469Z,1013.60
2022-11-28T09:45:25.447Z,1013.60
2022-11-28T09:46:25.493Z,1013.58
2022-11-28T09:47:25.427Z,1013.54
2022-11-28T09:48:25.332Z,1013.55
2022-11-28T09:49:25.300Z,1013.45
2022-11-28T09:50:25.269Z,1013.53
2022-11-28T09:51:25.230Z,1013.49
2022-11-28T09:52:25.283Z,1013.46
2022-11-28T09:53:25.165Z,1013.49
2022-11-28T09:54:25.125Z,1013.42
2022-11-28T09:55:25.090Z,1013.43
2022-11-28T09:56:25.056Z,1013.42
2022-11-28T09:57:25.087Z,1013.39
2022-11-28T09:58:24.979Z,1013.37
2022-11-28T09:59:24.949Z,1013.35
2022-11-28T10:00:24.923Z,1013.33
2022-11-28T10:01:24.887Z,1013.34
2022-11-28T10:02:24.895Z,1013.30
2022-11-28T10:03:24.869Z,1013.29
2022-11-28T10:04:24.817Z,1013.28
2022-11-28T10:05:24.745Z,1013.31
2022-11-28T10:06:24.699Z,1013.31
2022-11-28T10:07:24.758Z,1013.30
2022-11-28T10:08:24.636Z,1013.31
2022-11-28T10:09:24.597Z,1013.33
2022-11-28T10:10:24.566Z,1013.25
2022-11-28T10:11:24.533Z,1013.27
2022-11-28T10:12:24.511Z,1013.25
2022-11-28T10:13:27.438Z,1013.29
2022-11-28T10:14:24.420Z,1013.27
2022-11-28T10:15:24.403Z,1013.29
2022-11-28T10:16:24.538Z,1013.24
2022-11-28T10:17:24.323Z,1013.26
2022-11-28T10:18:24.291Z,1013.27
2022-11-28T10:19:57.204Z,1013.25
2022-11-28T10:20:24.228Z,1013.21
2022-11-28T10:21:24.188Z,1013.19
2022-11-28T10:22:24.185Z,1013.21
2022-11-28T10:23:24.175Z,1013.26
2022-11-28T10:24:24.075Z,1013.26
2022-11-28T10:25:24.055Z,1013.20
2022-11-28T10:26:24.007Z,1013.23
2022-11-28T10:27:26.895Z,1013.21
2022-11-28T10:28:24.000Z,1013.23
2022-11-28T10:29:23.909Z,1013.19
2022-11-28T10:30:23.896Z,1013.19
2022-11-28T10:31:23.870Z,1013.21
2022-11-28T10:32:23.792Z,1013.16
2022-11-28T10:33:23.771Z,1013.12
2022-11-28T10:34:23.786Z,1013.11
2022-11-28T10:35:28.096Z,1013.12
2022-11-28T10:36:23.656Z,1013.12
2022-11-28T10:37:23.623Z,1013.17
2022-11-28T10:38:23.585Z,1013.14
2022-11-28T10:39:23.550Z,1013.17
2022-11-28T10:40:23.581Z,1013.24
2022-11-28T10:41:23.497Z,1013.19
2022-11-28T10:42:23.453Z,1013.22
2022-11-28T10:43:23.415Z,1013.21
2022-11-28T10:44:23.381Z,1013.18
2022-11-28T10:45:23.337Z,1013.18
2022-11-28T10:46:23.413Z,1013.17
2022-11-28T10:47:23.283Z,1013.19
2022-11-28T10:48:38.990Z,1013.17
2022-11-28T10:49:23.201Z,1013.13
2022-11-28T10:50:24.985Z,1013.18
2022-11-28T10:51:23.155Z,1013.13
2022-11-28T10:52:23.179Z,1013.15
2022-11-28T10:53:23.069Z,1013.24
2022-11-28T10:54:23.035Z,1013.24
2022-11-28T10:55:22.995Z,1013.21
2022-11-28T10:56:22.962Z,1013.20
2022-11-28T10:57:22.942Z,1013.22
2022-11-28T10:58:22.950Z,1013.22
2022-11-28T10:59:22.861Z,1013.19
2022-11-28T11:00:22.820Z,1013.19
2022-11-28T11:01:22.863Z,1013.17
2022-11-28T11:02:22.754Z,1013.17
2022-11-28T11:03:22.722Z,1013.16
2022-11-28T11:04:22.805Z,1013.19
2022-11-28T11:05:22.647Z,1013.20
2022-11-28T11:06:22.613Z,1013.19
2022-11-28T11:07:27.931Z,1013.19
2022-11-28T11:08:22.632Z,1013.22
2022-11-28T11:09:22.507Z,1013.15
2022-11-28T11:10:22.532Z,1013.17
2022-11-28T11:11:22.437Z,1013.21
2022-11-28T11:12:22.414Z,1013.12
2022-11-28T11:13:22.367Z,1013.15
2022-11-28T11:14:22.336Z,1013.16
2022-11-28T11:15:22.305Z,1013.12
2022-11-28T11:16:22.368Z,1013.13
2022-11-28T11:17:22.229Z,1013.14
2022-11-28T11:18:22.206Z,1013.13
2022-11-28T11:19:22.169Z,1013.11
2022-11-28T11:20:22.130Z,1013.11
2022-11-28T11:21:22.092Z,1013.06
2022-11-28T11:22:23.930Z,1013.08
2022-11-28T11:23:22.054Z,1013.11
2022-11-28T11:24:21.999Z,1013.07
2022-11-28T11:25:21.963Z,1013.10
2022-11-28T11:26:21.928Z,1013.07
2022-11-28T11:27:21.893Z,1013.04
2022-11-28T11:28:21.917Z,1013.03
2022-11-28T11:29:21.816Z,1012.99
2022-11-28T11:30:21.808Z,1013.02
2022-11-28T11:31:21.846Z,1013.00
2022-11-28T11:32:21.748Z,1013.03
2022-11-28T11:33:21.682Z,1012.97
2022-11-28T11:34:21.747Z,1012.94
2022-11-28T11:35:21.634Z,1012.99
2022-11-28T11:36:21.593Z,1012.92
2022-11-28T11:37:21.539Z,1012.96
2022-11-28T11:38:21.507Z,1012.88
2022-11-28T11:39:21.480Z,1012.88
2022-11-28T11:40:21.498Z,1012.87
2022-11-28T11:41:21.406Z,1012.83
2022-11-28T11:42:21.369Z,1012.87
2022-11-28T11:43:21.328Z,1012.88
2022-11-28T11:44:21.297Z,1012.81
2022-11-28T11:45:21.274Z,1012.76
2022-11-28T11:46:21.375Z,1012.77
2022-11-28T11:47:21.201Z,1012.74
2022-11-28T11:48:21.163Z,1012.75
2022-11-28T11:49:21.127Z,1012.74
2022-11-28T11:50:21.087Z,1012.70
2022-11-28T11:51:21.054Z,1012.69
2022-11-28T11:52:21.085Z,1012.65
2022-11-28T11:53:20.982Z,1012.69
2022-11-28T11:54:20.956Z,1012.70
2022-11-28T11:55:20.917Z,1012.67
2022-11-28T11:56:20.889Z,1012.68
2022-11-28T11:57:35.301Z,1012.68
2022-11-28T11:58:20.873Z,1012.68
2022-11-28T11:59:20.778Z,1012.69
2022-11-28T12:00:20.750Z,1012.65
2022-11-28T12:01:20.709Z,1012.66
2022-11-28T12:02:20.704Z,1012.66
2022-11-28T12:03:20.775Z,1012.64
2022-11-28T12:04:43.895Z,1012.64
2022-11-28T12:05:20.573Z,1012.64